Terminal Aerodrome Forecast
Issued by NWS Atlanta, GA

Home | Current Version | Previous Version | Text Only | Print | Product List | Glossary On
Versions: 1 2 3 4 5 6 7 8 9 10 11 12 13 14 15 16 17 18 19 20 21 22 23 24 25 26 27 28 29 30 31 32 33 34 35 36 37 38 39
764
FTUS42 KFFC 180528
TAFATL
TAF
KATL 180528Z 1806/1912 25005KT P6SM SCT250
     FM181100 24004KT P6SM FEW012
     FM181400 28007KT P6SM SCT030 BKN200
     FM181700 29008KT P6SM SCT040 BKN250 PROB30 1817/1821 -TSRA
      BKN035CB
     FM190100 30005KT P6SM SCT250=

USA.gov is the U.S. government's official web portal to all federal, state and local government web resources and services.